createdAt,value
2023-01-26T00:01:19.718Z,101782.00
2023-01-26T00:03:46.876Z,101788.47
2023-01-26T00:06:16.379Z,101743.31
2023-01-26T00:08:44.630Z,101790.41
2023-01-26T00:11:13.966Z,101779.84
2023-01-26T00:13:41.051Z,101774.28
2023-01-26T00:16:13.577Z,101769.50
2023-01-26T00:18:40.831Z,101764.25
2023-01-26T00:21:13.971Z,101690.66
2023-01-26T00:23:40.585Z,101746.63
2023-01-26T00:26:08.689Z,101748.97
2023-01-26T00:28:35.240Z,101740.81
2023-01-26T00:31:06.658Z,101722.63
2023-01-26T00:33:33.677Z,101721.34
2023-01-26T00:36:00.442Z,101727.28
2023-01-26T00:38:27.396Z,101680.88
2023-01-26T00:40:53.991Z,101681.47
2023-01-26T00:43:20.602Z,101693.63
2023-01-26T00:45:47.717Z,101695.84
2023-01-26T00:48:14.317Z,101698.03
2023-01-26T00:50:40.868Z,101702.25
2023-01-26T00:53:07.347Z,101667.22
2023-01-26T00:55:33.867Z,101681.25
2023-01-26T00:58:01.606Z,101679.97
2023-01-26T01:00:28.427Z,101685.25
2023-01-26T01:02:56.860Z,101680.56
2023-01-26T01:05:24.667Z,101682.72
2023-01-26T01:07:51.585Z,101688.38
2023-01-26T01:10:18.451Z,101668.56
2023-01-26T01:12:45.418Z,101690.53
2023-01-26T01:15:12.146Z,101686.59
2023-01-26T01:17:38.823Z,101680.38
2023-01-26T01:20:06.763Z,101678.13
2023-01-26T01:22:34.212Z,101684.06
2023-01-26T01:25:00.687Z,101637.34
2023-01-26T01:27:27.246Z,101660.47
2023-01-26T01:29:54.173Z,101674.28
2023-01-26T01:32:21.059Z,101676.78
2023-01-26T01:34:48.058Z,101660.31
2023-01-26T01:37:15.145Z,101650.25
2023-01-26T01:39:41.671Z,101658.63
2023-01-26T01:42:08.448Z,101650.34
2023-01-26T01:44:36.581Z,101672.22
2023-01-26T01:47:05.623Z,101662.50
2023-01-26T01:49:36.814Z,101672.88
2023-01-26T01:52:18.327Z,101664.22
2023-01-26T01:54:51.082Z,101668.63
2023-01-26T01:57:28.542Z,101660.38
2023-01-26T01:59:59.943Z,101595.28
2023-01-26T02:02:26.649Z,101639.94
2023-01-26T02:04:54.400Z,101636.72
2023-01-26T02:07:21.425Z,101628.88
2023-01-26T02:10:06.483Z,101618.38
2023-01-26T02:12:33.863Z,101608.59
2023-01-26T02:15:01.453Z,101627.19
2023-01-26T02:17:27.974Z,101622.16
2023-01-26T02:20:16.276Z,101629.53
2023-01-26T02:22:52.343Z,101631.91
2023-01-26T02:25:40.539Z,101622.84
2023-01-26T02:28:07.054Z,101619.88
2023-01-26T02:30:33.716Z,101624.72
2023-01-26T02:33:00.370Z,101624.03
2023-01-26T02:35:26.857Z,101621.53
2023-01-26T02:37:53.656Z,101619.13
2023-01-26T02:40:38.507Z,101627.34
2023-01-26T02:43:05.222Z,101618.22
2023-01-26T02:45:32.973Z,101625.06
2023-01-26T02:48:04.548Z,101620.19
2023-01-26T02:50:31.187Z,101620.63
2023-01-26T02:52:57.744Z,101618.56
2023-01-26T02:55:28.670Z,101622.28
2023-01-26T02:57:56.948Z,101616.00
2023-01-26T03:00:28.914Z,101601.75
2023-01-26T03:02:57.261Z,101589.75
2023-01-26T03:05:23.926Z,101617.13
2023-01-26T03:07:50.630Z,101612.16
2023-01-26T03:10:18.205Z,101606.66
2023-01-26T03:12:45.587Z,101619.41
2023-01-26T03:15:31.423Z,101609.00
2023-01-26T03:18:24.061Z,101606.00
2023-01-26T03:21:09.151Z,101574.91
2023-01-26T03:23:54.137Z,101531.16
2023-01-26T03:26:39.263Z,101577.66
2023-01-26T03:29:05.765Z,101603.91
2023-01-26T03:31:32.476Z,101601.78
2023-01-26T03:33:58.993Z,101581.97
2023-01-26T03:36:25.545Z,101607.97
2023-01-26T03:38:51.982Z,101599.16
2023-01-26T03:41:37.644Z,101534.19
2023-01-26T03:44:22.762Z,101586.22
2023-01-26T03:47:07.512Z,101605.41
2023-01-26T03:49:52.461Z,101576.34
2023-01-26T03:52:37.228Z,101555.34
2023-01-26T03:55:22.360Z,101603.91
2023-01-26T03:57:49.003Z,101602.94
2023-01-26T04:00:15.934Z,101600.41
2023-01-26T04:03:00.959Z,101599.22
2023-01-26T04:05:45.804Z,101603.13
2023-01-26T04:08:24.471Z,101608.28
2023-01-26T04:10:54.320Z,101604.38
2023-01-26T04:13:41.022Z,101599.78
2023-01-26T04:16:27.955Z,101594.84
2023-01-26T04:19:13.674Z,101600.44
2023-01-26T04:21:40.351Z,101589.25
2023-01-26T04:24:16.733Z,101594.66
2023-01-26T04:26:43.945Z,101572.94
2023-01-26T04:29:12.634Z,101599.28
2023-01-26T04:31:40.120Z,101556.19
2023-01-26T04:34:10.469Z,101602.66
2023-01-26T04:36:36.968Z,101588.06
2023-01-26T04:39:03.917Z,101573.81
2023-01-26T04:41:31.503Z,101581.75
2023-01-26T04:43:58.707Z,101584.28
2023-01-26T04:46:25.670Z,101574.34
2023-01-26T04:48:52.619Z,101572.94
2023-01-26T04:51:20.671Z,101582.81
2023-01-26T04:53:48.347Z,101586.44
2023-01-26T04:56:20.567Z,101587.25
2023-01-26T04:58:47.034Z,101586.72
2023-01-26T05:01:13.616Z,101570.34
2023-01-26T05:03:40.694Z,101582.88
2023-01-26T05:06:07.255Z,101567.66
2023-01-26T05:08:33.924Z,101577.72
2023-01-26T05:11:00.401Z,101580.59
2023-01-26T05:13:26.891Z,101557.09
2023-01-26T05:15:53.384Z,101537.59
2023-01-26T05:18:19.858Z,101537.22
2023-01-26T05:20:46.867Z,101551.50
2023-01-26T05:23:13.385Z,101567.97
2023-01-26T05:25:39.959Z,101561.56
2023-01-26T05:28:06.451Z,101588.59
2023-01-26T05:30:33.015Z,101585.22
2023-01-26T05:33:04.652Z,101557.72
2023-01-26T05:35:31.289Z,101573.44
2023-01-26T05:37:57.972Z,101579.59
2023-01-26T05:40:26.038Z,101569.13
2023-01-26T05:42:53.792Z,101595.03
2023-01-26T05:45:20.845Z,101583.22
2023-01-26T05:47:48.609Z,101602.13
2023-01-26T05:50:16.242Z,101598.59
2023-01-26T05:52:44.087Z,101599.25
2023-01-26T05:55:10.559Z,101591.50
2023-01-26T05:57:37.167Z,101604.13
2023-01-26T06:00:07.222Z,101586.94
2023-01-26T06:02:33.795Z,101596.03
2023-01-26T06:05:00.326Z,101571.91
2023-01-26T06:07:26.938Z,101601.88
2023-01-26T06:09:53.486Z,101590.91
2023-01-26T06:12:21.038Z,101603.63
2023-01-26T06:14:47.718Z,101595.28
2023-01-26T06:17:15.696Z,101597.09
2023-01-26T06:19:42.291Z,101592.13
2023-01-26T06:22:10.119Z,101598.75
2023-01-26T06:24:36.909Z,101564.66
2023-01-26T06:27:06.893Z,101558.78
2023-01-26T06:29:33.935Z,101602.94
2023-01-26T06:32:00.715Z,101587.78
2023-01-26T06:34:27.239Z,101599.16
2023-01-26T06:36:53.937Z,101560.31
2023-01-26T06:39:20.614Z,101561.41
2023-01-26T06:41:47.060Z,101551.91
2023-01-26T06:44:13.571Z,101573.50
2023-01-26T06:46:40.134Z,101601.53
2023-01-26T06:49:06.717Z,101559.66
2023-01-26T06:51:39.368Z,101607.44
2023-01-26T06:54:05.827Z,101609.44
2023-01-26T06:56:32.486Z,101590.16
2023-01-26T06:58:58.995Z,101599.69
2023-01-26T07:01:26.501Z,101602.94
2023-01-26T07:03:55.013Z,101533.53
2023-01-26T07:06:25.330Z,101507.28
2023-01-26T07:08:51.861Z,101612.59
2023-01-26T07:11:20.069Z,101496.59
2023-01-26T07:13:46.626Z,101599.41
2023-01-26T07:16:15.363Z,101594.94
2023-01-26T07:18:42.142Z,101597.91
2023-01-26T07:21:13.611Z,101603.66
2023-01-26T07:23:40.600Z,101596.72
2023-01-26T07:26:07.411Z,101595.06
2023-01-26T07:28:39.231Z,101567.09
2023-01-26T07:31:07.127Z,101567.97
2023-01-26T07:33:34.874Z,101586.84
2023-01-26T07:36:01.733Z,101588.00
2023-01-26T07:38:29.150Z,101577.38
2023-01-26T07:40:56.355Z,101560.88
2023-01-26T07:43:23.058Z,101597.53
2023-01-26T07:45:51.734Z,101587.94
2023-01-26T07:48:23.284Z,101555.09
2023-01-26T07:50:50.883Z,101595.50
2023-01-26T07:53:22.889Z,101572.28
2023-01-26T07:55:49.960Z,101581.19
2023-01-26T07:58:18.512Z,101604.63
2023-01-26T08:00:47.192Z,101606.50
2023-01-26T08:03:14.080Z,101602.88
2023-01-26T08:05:40.617Z,101608.31
2023-01-26T08:08:07.253Z,101601.34
2023-01-26T08:10:33.951Z,101606.28
2023-01-26T08:13:01.060Z,101610.94
2023-01-26T08:15:28.501Z,101598.22
2023-01-26T08:17:55.217Z,101585.53
2023-01-26T08:20:22.052Z,101620.75
2023-01-26T08:22:48.764Z,101621.19
2023-01-26T08:25:15.463Z,101595.94
2023-01-26T08:27:42.002Z,101618.03
2023-01-26T08:30:09.384Z,101627.94
2023-01-26T08:32:36.139Z,101586.16
2023-01-26T08:35:02.756Z,101627.81
2023-01-26T08:37:29.451Z,101638.06
2023-01-26T08:39:55.985Z,101604.50
2023-01-26T08:42:22.925Z,101640.00
2023-01-26T08:44:49.514Z,101622.91
2023-01-26T08:47:15.951Z,101637.28
2023-01-26T08:49:42.469Z,101634.16
2023-01-26T08:52:09.157Z,101621.06
2023-01-26T08:54:35.798Z,101637.31
2023-01-26T08:57:02.325Z,101596.41
2023-01-26T08:59:28.846Z,101632.03
2023-01-26T09:01:55.855Z,101584.25
2023-01-26T09:04:22.530Z,101630.25
2023-01-26T09:06:49.041Z,101641.69
2023-01-26T09:09:15.802Z,101632.47
2023-01-26T09:11:42.337Z,101643.00
2023-01-26T09:14:08.983Z,101630.44
2023-01-26T09:16:35.595Z,101600.34
2023-01-26T09:19:02.392Z,101612.25
2023-01-26T09:21:29.151Z,101639.81
2023-01-26T09:23:57.282Z,101617.56
2023-01-26T09:26:24.173Z,101641.94
2023-01-26T09:28:52.527Z,101641.94
2023-01-26T09:31:19.316Z,101633.22
2023-01-26T09:33:46.235Z,101635.22
2023-01-26T09:36:13.161Z,101635.25
2023-01-26T09:38:40.271Z,101639.69
2023-01-26T09:41:27.993Z,101639.50
2023-01-26T09:43:59.796Z,101618.41
2023-01-26T09:46:40.826Z,101621.31
2023-01-26T09:49:30.889Z,101626.94
2023-01-26T09:52:06.521Z,101634.13
2023-01-26T09:54:33.012Z,101637.84
2023-01-26T09:57:12.279Z,101640.88
2023-01-26T09:59:59.379Z,101645.53
2023-01-26T10:02:35.103Z,101642.88
2023-01-26T10:05:07.344Z,101648.00
2023-01-26T10:07:33.893Z,101620.09
2023-01-26T10:10:00.668Z,101636.03
2023-01-26T10:12:35.603Z,101602.09
2023-01-26T10:15:10.746Z,101609.91
2023-01-26T10:17:40.474Z,101623.63
2023-01-26T10:20:10.202Z,101622.69
2023-01-26T10:22:49.070Z,101590.81
2023-01-26T10:25:18.667Z,101624.50
2023-01-26T10:27:45.989Z,101592.81
2023-01-26T10:30:14.436Z,101613.72
2023-01-26T10:32:42.920Z,101621.03
2023-01-26T10:35:24.166Z,101617.31
2023-01-26T10:37:54.554Z,101589.28
2023-01-26T10:40:21.717Z,101621.66
2023-01-26T10:42:57.465Z,101623.88
2023-01-26T10:45:27.297Z,101615.59
2023-01-26T10:48:16.226Z,101602.47
2023-01-26T10:50:42.816Z,101577.88
2023-01-26T10:53:16.529Z,101534.34
2023-01-26T10:55:43.052Z,101605.00
2023-01-26T10:58:43.999Z,101607.84
2023-01-26T11:01:12.450Z,101589.22
2023-01-26T11:03:39.563Z,101600.84
2023-01-26T11:06:08.394Z,101604.16
2023-01-26T11:08:36.731Z,101602.47
2023-01-26T11:11:04.764Z,101607.50
2023-01-26T11:13:31.299Z,101604.97
2023-01-26T11:16:20.666Z,101592.41
2023-01-26T11:18:56.214Z,101586.97
2023-01-26T11:21:36.934Z,101565.06
2023-01-26T11:24:13.758Z,101600.13
2023-01-26T11:26:54.704Z,101595.72
2023-01-26T11:29:34.251Z,101589.41
2023-01-26T11:32:20.068Z,101584.16
2023-01-26T11:34:53.761Z,101577.88
2023-01-26T11:37:29.190Z,101589.78
2023-01-26T11:39:58.710Z,101586.53
2023-01-26T11:43:08.923Z,101578.84
2023-01-26T11:45:51.321Z,101573.19
2023-01-26T11:48:57.192Z,101572.84
2023-01-26T11:51:30.607Z,101538.75
2023-01-26T11:54:24.923Z,101564.56
2023-01-26T11:57:10.398Z,101570.31
2023-01-26T11:59:41.201Z,101561.69
2023-01-26T12:02:30.887Z,101573.91
2023-01-26T12:05:03.290Z,101566.25
2023-01-26T12:07:51.415Z,101565.69
2023-01-26T12:10:21.499Z,101536.25
2023-01-26T12:12:51.628Z,101511.38
2023-01-26T12:15:29.788Z,101568.59
2023-01-26T12:18:12.584Z,101530.44
2023-01-26T12:21:06.127Z,101556.94
2023-01-26T12:23:48.718Z,101532.97
2023-01-26T12:26:18.273Z,101552.00
2023-01-26T12:29:09.497Z,101553.13
2023-01-26T12:31:45.631Z,101547.97
2023-01-26T12:34:13.184Z,101540.38
2023-01-26T12:36:59.142Z,101531.59
2023-01-26T12:39:39.685Z,101522.38
2023-01-26T12:42:31.635Z,101524.00
2023-01-26T12:45:01.818Z,101519.47
2023-01-26T12:47:41.865Z,101501.72
2023-01-26T12:50:13.690Z,101516.91
2023-01-26T12:52:55.291Z,101522.06
2023-01-26T12:55:23.754Z,101511.38
2023-01-26T12:58:06.180Z,101515.69
2023-01-26T13:00:34.871Z,101513.78
2023-01-26T13:03:05.669Z,101494.91
2023-01-26T13:05:36.053Z,101480.97
2023-01-26T13:08:47.113Z,101512.47
2023-01-26T13:11:42.765Z,101505.66
2023-01-26T13:14:30.621Z,101505.03
2023-01-26T13:16:58.561Z,101486.72
2023-01-26T13:19:43.557Z,101503.91
2023-01-26T13:22:40.913Z,101504.72
2023-01-26T13:25:36.873Z,101516.66
2023-01-26T13:28:12.892Z,101492.66
2023-01-26T13:30:44.614Z,101480.06
2023-01-26T13:33:21.896Z,101509.28
2023-01-26T13:35:50.759Z,101505.97
2023-01-26T13:38:40.222Z,101506.53
2023-01-26T13:41:20.709Z,101510.50
2023-01-26T13:43:53.307Z,101498.13
2023-01-26T13:46:28.310Z,101516.16
2023-01-26T13:48:55.883Z,101503.25
2023-01-26T13:51:26.387Z,101516.50
2023-01-26T13:54:12.527Z,101512.06
2023-01-26T13:56:43.920Z,101515.50
2023-01-26T13:59:12.531Z,101511.41
2023-01-26T14:01:53.635Z,101464.78
2023-01-26T14:04:24.351Z,101474.09
2023-01-26T14:06:58.731Z,101513.13
2023-01-26T14:09:30.483Z,101472.75
2023-01-26T14:12:05.103Z,101511.25
2023-01-26T14:14:37.032Z,101496.78
2023-01-26T14:17:10.830Z,101498.31
2023-01-26T14:19:40.553Z,101508.16
2023-01-26T14:22:13.505Z,101504.25
2023-01-26T14:24:41.354Z,101502.19
2023-01-26T14:27:35.121Z,101511.84
2023-01-26T14:30:02.661Z,101508.66
2023-01-26T14:32:29.891Z,101514.25
2023-01-26T14:35:00.684Z,101517.34
2023-01-26T14:37:28.330Z,101515.78
2023-01-26T14:40:20.338Z,101509.00
2023-01-26T14:42:48.716Z,101513.81
2023-01-26T14:45:15.401Z,101523.22
2023-01-26T14:47:42.916Z,101522.47
2023-01-26T14:50:22.324Z,101501.38
2023-01-26T14:52:49.165Z,101491.13
2023-01-26T14:55:28.083Z,101521.22
2023-01-26T14:57:55.614Z,101528.22
2023-01-26T15:00:31.359Z,101498.16
2023-01-26T15:02:59.142Z,101473.97
2023-01-26T15:05:36.831Z,101534.13
2023-01-26T15:08:19.245Z,101528.72
2023-01-26T15:11:16.032Z,101542.81
2023-01-26T15:13:45.136Z,101528.63
2023-01-26T15:16:18.192Z,101530.22
2023-01-26T15:18:45.153Z,101531.16
2023-01-26T15:21:14.530Z,101527.94
2023-01-26T15:23:43.231Z,101525.69
2023-01-26T15:26:28.616Z,101533.72
2023-01-26T15:28:57.114Z,101526.34
2023-01-26T15:31:28.476Z,101534.97
2023-01-26T15:33:56.097Z,101534.13
2023-01-26T15:36:25.651Z,101532.88
2023-01-26T15:38:58.706Z,101532.88
2023-01-26T15:41:25.474Z,101532.75
2023-01-26T15:43:51.987Z,101529.41
2023-01-26T15:46:18.541Z,101496.91
2023-01-26T15:48:45.035Z,101528.41
2023-01-26T15:51:14.958Z,101527.09
2023-01-26T15:53:41.847Z,101519.38
2023-01-26T15:56:13.397Z,101504.59
2023-01-26T15:58:40.658Z,101518.09
2023-01-26T16:01:09.969Z,101522.13
2023-01-26T16:03:36.500Z,101481.63
2023-01-26T16:06:03.248Z,101494.91
2023-01-26T16:08:29.722Z,101459.59
2023-01-26T16:10:56.874Z,101512.47
2023-01-26T16:13:23.494Z,101512.91
2023-01-26T16:15:52.307Z,101516.88
2023-01-26T16:18:19.403Z,101519.16
2023-01-26T16:20:47.745Z,101509.16
2023-01-26T16:23:24.181Z,101518.78
2023-01-26T16:25:51.336Z,101515.69
2023-01-26T16:28:19.253Z,101527.56
2023-01-26T16:30:47.145Z,101515.91
2023-01-26T16:33:16.383Z,101523.47
2023-01-26T16:35:43.702Z,101496.16
2023-01-26T16:38:13.174Z,101519.81
2023-01-26T16:40:40.733Z,101499.81
2023-01-26T16:43:17.177Z,101486.00
2023-01-26T16:45:43.784Z,101517.03
2023-01-26T16:48:14.934Z,101522.25
2023-01-26T16:50:42.897Z,101524.06
2023-01-26T16:53:26.159Z,101525.63
2023-01-26T16:55:52.926Z,101518.97
2023-01-26T16:58:20.105Z,101504.66
2023-01-26T17:00:47.530Z,101521.22
2023-01-26T17:03:14.468Z,101502.91
2023-01-26T17:05:41.274Z,101503.06
2023-01-26T17:08:08.058Z,101507.44
2023-01-26T17:10:34.675Z,101520.63
2023-01-26T17:13:01.652Z,101524.03
2023-01-26T17:15:29.246Z,101533.31
2023-01-26T17:17:56.312Z,101532.28
2023-01-26T17:20:23.182Z,101534.00
2023-01-26T17:22:50.067Z,101530.19
2023-01-26T17:25:18.130Z,101530.34
2023-01-26T17:27:46.383Z,101534.69
2023-01-26T17:30:13.258Z,101529.72
2023-01-26T17:32:41.883Z,101533.88
2023-01-26T17:35:08.710Z,101528.72
2023-01-26T17:37:35.706Z,101540.59
2023-01-26T17:40:02.190Z,101531.19
2023-01-26T17:42:30.091Z,101535.44
2023-01-26T17:44:57.841Z,101504.97
2023-01-26T17:47:27.585Z,101540.88
2023-01-26T17:49:54.043Z,101532.63
2023-01-26T17:52:20.506Z,101528.13
2023-01-26T17:54:49.113Z,101539.75
2023-01-26T17:57:15.720Z,101523.56
2023-01-26T17:59:42.266Z,101530.16
2023-01-26T18:02:11.897Z,101542.88
2023-01-26T18:04:38.379Z,101517.72
2023-01-26T18:07:05.059Z,101547.41
2023-01-26T18:09:32.025Z,101518.97
2023-01-26T18:11:58.539Z,101543.03
2023-01-26T18:14:25.035Z,101550.94
2023-01-26T18:16:51.563Z,101544.69
2023-01-26T18:19:18.917Z,101555.28
2023-01-26T18:21:45.460Z,101542.56
2023-01-26T18:24:12.034Z,101541.25
2023-01-26T18:26:38.767Z,101528.31
2023-01-26T18:29:06.133Z,101471.03
2023-01-26T18:31:36.820Z,101538.16
2023-01-26T18:34:04.109Z,101542.78
2023-01-26T18:36:31.205Z,101540.94
2023-01-26T18:39:00.236Z,101538.50
2023-01-26T18:41:28.291Z,101538.50
2023-01-26T18:43:55.415Z,101524.94
2023-01-26T18:46:22.696Z,101536.66
2023-01-26T18:48:49.251Z,101524.59
2023-01-26T18:51:15.824Z,101532.25
2023-01-26T18:53:42.394Z,101538.47
2023-01-26T18:56:11.110Z,101476.50
2023-01-26T18:58:39.027Z,101546.59
2023-01-26T19:01:09.767Z,101493.09
2023-01-26T19:03:37.364Z,101531.41
2023-01-26T19:06:07.324Z,101535.13
2023-01-26T19:08:37.343Z,101534.47
2023-01-26T19:11:05.924Z,101531.25
2023-01-26T19:13:32.487Z,101526.84
2023-01-26T19:15:59.004Z,101530.25
2023-01-26T19:18:25.735Z,101526.19
2023-01-26T19:20:59.306Z,101522.31
2023-01-26T19:23:26.354Z,101527.13
2023-01-26T19:25:53.211Z,101528.25
2023-01-26T19:28:20.037Z,101529.66
2023-01-26T19:30:47.264Z,101516.47
2023-01-26T19:33:27.927Z,101514.13
2023-01-26T19:35:56.187Z,101531.13
2023-01-26T19:38:23.544Z,101479.81
2023-01-26T19:40:51.780Z,101516.00
2023-01-26T19:43:19.161Z,101530.16
2023-01-26T19:45:50.554Z,101503.66
2023-01-26T19:48:17.121Z,101511.72
2023-01-26T19:50:43.897Z,101534.16
2023-01-26T19:53:10.937Z,101526.59
2023-01-26T19:55:37.748Z,101528.66
2023-01-26T19:58:04.320Z,101534.09
2023-01-26T20:00:30.948Z,101530.25
2023-01-26T20:02:57.516Z,101497.25
2023-01-26T20:05:24.041Z,101526.25
2023-01-26T20:07:50.720Z,101527.31
2023-01-26T20:10:17.517Z,101505.03
2023-01-26T20:12:44.482Z,101489.78
2023-01-26T20:15:11.475Z,101525.59
2023-01-26T20:17:38.227Z,101535.09
2023-01-26T20:20:05.365Z,101482.16
2023-01-26T20:22:34.228Z,101524.09
2023-01-26T20:25:01.088Z,101494.16
2023-01-26T20:27:29.243Z,101514.91
2023-01-26T20:29:56.120Z,101521.34
2023-01-26T20:32:22.795Z,101526.75
2023-01-26T20:34:49.465Z,101527.03
2023-01-26T20:37:16.247Z,101479.19
2023-01-26T20:39:44.982Z,101515.91
2023-01-26T20:42:16.505Z,101526.25
2023-01-26T20:44:43.554Z,101526.06
2023-01-26T20:47:10.182Z,101517.19
2023-01-26T20:49:37.359Z,101518.97
2023-01-26T20:52:08.367Z,101512.94
2023-01-26T20:54:35.635Z,101506.66
2023-01-26T20:57:02.658Z,101519.47
2023-01-26T20:59:30.374Z,101517.50
2023-01-26T21:01:57.219Z,101487.16
2023-01-26T21:04:23.816Z,101523.56
2023-01-26T21:06:50.533Z,101505.22
2023-01-26T21:09:17.190Z,101529.88
2023-01-26T21:11:43.733Z,101522.56
2023-01-26T21:14:12.113Z,101516.44
2023-01-26T21:16:38.659Z,101507.00
2023-01-26T21:19:05.363Z,101531.59
2023-01-26T21:21:32.077Z,101531.41
2023-01-26T21:23:58.753Z,101518.84
2023-01-26T21:26:27.655Z,101486.72
2023-01-26T21:28:56.801Z,101502.53
2023-01-26T21:31:25.430Z,101519.09
2023-01-26T21:33:52.703Z,101526.22
2023-01-26T21:36:24.340Z,101520.75
2023-01-26T21:38:52.234Z,101510.63
2023-01-26T21:41:39.866Z,101519.88
2023-01-26T21:44:53.503Z,101522.38
2023-01-26T21:47:20.080Z,101484.25
2023-01-26T21:49:47.684Z,101508.03
2023-01-26T21:52:32.828Z,101513.75
2023-01-26T21:54:59.310Z,101509.53
2023-01-26T21:57:44.635Z,101502.13
2023-01-26T22:00:11.925Z,101504.63
2023-01-26T22:02:38.802Z,101507.19
2023-01-26T22:05:05.640Z,101508.59
2023-01-26T22:07:32.191Z,101505.59
2023-01-26T22:09:58.752Z,101494.50
2023-01-26T22:12:25.266Z,101511.16
2023-01-26T22:14:52.332Z,101507.22
2023-01-26T22:17:18.805Z,101510.59
2023-01-26T22:19:45.300Z,101510.47
2023-01-26T22:22:12.555Z,101514.34
2023-01-26T22:24:39.052Z,101513.28
2023-01-26T22:27:08.147Z,101491.19
2023-01-26T22:29:34.778Z,101494.19
2023-01-26T22:32:02.582Z,101498.06
2023-01-26T22:34:29.131Z,101501.81
2023-01-26T22:36:55.609Z,101471.69
2023-01-26T22:39:22.168Z,101500.34
2023-01-26T22:41:48.718Z,101506.34
2023-01-26T22:44:15.261Z,101509.59
2023-01-26T22:46:41.753Z,101511.69
2023-01-26T22:49:09.819Z,101508.06
2023-01-26T22:51:37.537Z,101518.47
2023-01-26T22:54:04.966Z,101522.50
2023-01-26T22:56:31.591Z,101516.28
2023-01-26T22:59:00.489Z,101520.34
2023-01-26T23:01:32.138Z,101519.41
2023-01-26T23:03:59.322Z,101526.84
2023-01-26T23:06:27.299Z,101507.50
2023-01-26T23:08:54.506Z,101515.91
2023-01-26T23:11:26.901Z,101519.63
2023-01-26T23:13:54.936Z,101530.78
2023-01-26T23:16:23.550Z,101535.31
2023-01-26T23:18:54.604Z,101530.84
2023-01-26T23:21:21.208Z,101524.47
2023-01-26T23:23:47.724Z,101528.81
2023-01-26T23:26:14.253Z,101534.06
2023-01-26T23:28:42.336Z,101533.00
2023-01-26T23:31:10.015Z,101529.31
2023-01-26T23:33:37.275Z,101521.69
2023-01-26T23:36:04.867Z,101535.13
2023-01-26T23:38:31.954Z,101538.41
2023-01-26T23:41:00.413Z,101538.69
2023-01-26T23:43:27.425Z,101504.06
2023-01-26T23:45:56.273Z,101537.66
2023-01-26T23:48:23.363Z,101535.31
2023-01-26T23:51:10.108Z,101519.38
2023-01-26T23:53:37.184Z,101544.22
2023-01-26T23:56:07.382Z,101520.13
2023-01-26T23:58:34.087Z,101506.72
